Time;durP1;ratioP1;P1;durP2;ratioP2;P2;SDS_P1;SDS_P2;PMS_P1;PMS_P2;Temp;Humidity;BMP_temperature;BMP_pressure;BME280_temperature;BME280_humidity;BME280_pressure;Samples;Min_cycle;Max_cycle;Signal;HPM_P1;HPM_P2
2021/12/24 00:02:02;;;;;;;38.53;19.83;;;-8.20;99.90;;;;;;4993484;28;20582;-69
2021/12/24 00:04:30;;;;;;;39.57;20.30;;;-8.20;99.90;;;;;;4994528;28;20206;-68
2021/12/24 00:06:57;;;;;;;41.53;20.87;;;-8.30;99.90;;;;;;4994846;28;20207;-67
2021/12/24 00:09:26;;;;;;;41.77;20.07;;;-8.30;99.90;;;;;;4994827;28;20214;-68
2021/12/24 00:11:58;;;;;;;40.20;19.30;;;-8.30;99.90;;;;;;4994362;28;20286;-68
2021/12/24 00:14:26;;;;;;;40.80;19.97;;;-8.30;99.90;;;;;;4987947;28;20284;-68
2021/12/24 00:16:57;;;;;;;40.70;19.60;;;-8.20;99.90;;;;;;4982488;28;20567;-66
2021/12/24 00:19:37;;;;;;;41.00;19.83;;;-8.20;99.90;;;;;;4993505;28;20648;-67
2021/12/24 00:22:44;;;;;;;42.17;19.07;;;-8.30;99.90;;;;;;4994272;28;20247;-67
2021/12/24 00:36:18;;;;;;;37.27;17.93;;;-8.40;99.90;;;;;;4993515;28;20199;-67
2021/12/24 00:38:46;;;;;;;35.30;17.93;;;-8.50;99.90;;;;;;4994263;28;20223;-68
2021/12/24 00:41:13;;;;;;;36.97;18.57;;;-8.40;99.90;;;;;;4993856;28;20230;-68
2021/12/24 00:43:40;;;;;;;29.97;17.43;;;-8.50;99.90;;;;;;4993945;28;20211;-67
2021/12/24 00:46:07;;;;;;;36.53;18.20;;;-8.50;99.90;;;;;;4982091;28;20204;-68
2021/12/24 00:48:34;;;;;;;33.93;18.00;;;-8.50;99.90;;;;;;4990804;28;20211;-67
2021/12/24 00:51:19;;;;;;;35.70;18.27;;;-8.50;99.90;;;;;;4992768;28;20203;-67
2021/12/24 00:56:31;;;;;;;31.87;17.40;;;-8.50;99.90;;;;;;4990940;28;20320;-70
2021/12/24 00:58:58;;;;;;;33.97;17.80;;;-8.60;99.90;;;;;;4992794;28;20239;-67
2021/12/24 01:01:25;;;;;;;35.27;17.60;;;-8.60;99.90;;;;;;4992943;28;20684;-68
2021/12/24 01:03:51;;;;;;;34.97;17.77;;;-8.60;99.90;;;;;;4998692;28;20199;-68
2021/12/24 01:06:18;;;;;;;33.00;17.20;;;-8.60;99.90;;;;;;4993000;28;20202;-67
2021/12/24 01:08:46;;;;;;;36.60;19.30;;;-8.70;99.90;;;;;;4992589;28;20641;-69
2021/12/24 01:11:13;;;;;;;32.17;17.40;;;-8.70;99.90;;;;;;4993255;28;20199;-67
2021/12/24 01:13:41;;;;;;;34.40;17.80;;;-8.60;99.90;;;;;;4993292;28;20215;-68
2021/12/24 01:16:17;;;;;;;37.43;18.10;;;-8.70;99.90;;;;;;4993351;28;20214;-69
2021/12/24 01:18:52;;;;;;;33.33;17.53;;;-8.70;99.90;;;;;;4992364;28;20192;-67
2021/12/24 01:21:31;;;;;;;33.33;18.23;;;-8.60;99.90;;;;;;4993052;28;20211;-69
2021/12/24 01:24:03;;;;;;;30.97;17.03;;;-8.70;99.90;;;;;;4993233;28;20283;-68
2021/12/24 01:26:38;;;;;;;32.23;16.67;;;-8.70;99.90;;;;;;4993189;28;20627;-67
2021/12/24 01:29:33;;;;;;;35.53;17.90;;;-8.70;99.90;;;;;;4993174;28;20626;-69
2021/12/24 01:40:23;;;;;;;36.00;18.20;;;-8.80;99.90;;;;;;4973840;28;20254;-68
2021/12/24 01:42:50;;;;;;;40.43;19.00;;;-8.80;99.90;;;;;;4983388;28;20261;-68
2021/12/24 01:45:20;;;;;;;36.60;19.07;;;-8.90;99.90;;;;;;4992515;28;20195;-68
2021/12/24 01:47:48;;;;;;;41.87;20.00;;;-8.90;99.90;;;;;;4992833;28;20526;-69
2021/12/24 01:50:16;;;;;;;48.00;21.47;;;-8.80;99.90;;;;;;4992633;28;20218;-67
2021/12/24 01:52:44;;;;;;;39.87;20.03;;;-8.80;99.90;;;;;;4992903;28;20206;-68
2021/12/24 01:55:12;;;;;;;45.03;21.27;;;-8.70;99.90;;;;;;4981215;28;20208;-68
2021/12/24 01:57:41;;;;;;;39.27;19.30;;;-8.80;99.90;;;;;;4972981;28;20208;-68
2021/12/24 02:00:11;;;;;;;37.83;19.00;;;-8.80;99.90;;;;;;4980594;28;20196;-69
2021/12/24 02:02:38;;;;;;;35.93;19.03;;;-8.80;99.90;;;;;;4992402;28;20725;-68
2021/12/24 02:05:05;;;;;;;32.73;17.80;;;-8.90;99.90;;;;;;4992232;28;20303;-68
2021/12/24 02:07:32;;;;;;;37.17;17.87;;;-8.90;99.90;;;;;;4992118;28;20735;-70
2021/12/24 02:09:59;;;;;;;32.40;17.73;;;-8.90;99.90;;;;;;4992291;28;20207;-69
2021/12/24 02:12:28;;;;;;;34.30;17.10;;;-8.90;99.90;;;;;;4992153;28;20204;-69
2021/12/24 02:14:58;;;;;;;38.10;18.93;;;-8.80;99.90;;;;;;4992605;28;20247;-69
2021/12/24 02:17:50;;;;;;;35.07;17.90;;;-8.80;99.90;;;;;;4992398;28;20646;-69
2021/12/24 02:28:38;;;;;;;34.37;16.93;;;-8.80;99.90;;;;;;4991609;28;20226;-68
2021/12/24 02:31:07;;;;;;;31.57;17.00;;;-8.80;99.90;;;;;;4990485;28;20235;-68
2021/12/24 02:33:34;;;;;;;30.90;17.07;;;-8.80;99.90;;;;;;4992093;28;20290;-68
2021/12/24 02:36:03;;;;;;;30.23;16.07;;;-8.80;99.90;;;;;;4992075;28;20707;-68
2021/12/24 02:38:31;;;;;;;34.47;16.87;;;-8.80;99.90;;;;;;4991569;28;20203;-68
2021/12/24 02:40:58;;;;;;;32.57;16.30;;;-8.80;99.90;;;;;;4991364;28;20227;-67
2021/12/24 02:43:26;;;;;;;33.07;16.67;;;-8.80;99.90;;;;;;4994074;28;20203;-69
2021/12/24 02:45:57;;;;;;;32.80;16.43;;;-8.80;99.90;;;;;;4995686;28;20207;-69
2021/12/24 02:54:00;;;;;;;32.40;16.57;;;-8.90;99.90;;;;;;4995412;28;20210;-68
2021/12/24 02:56:30;;;;;;;31.97;16.70;;;-8.80;99.90;;;;;;4995314;28;20247;-68
2021/12/24 02:58:59;;;;;;;31.77;16.23;;;-8.90;99.90;;;;;;4995040;28;20602;-68
2021/12/24 03:01:29;;;;;;;30.90;16.90;;;-8.90;99.90;;;;;;4995276;28;20680;-69
2021/12/24 03:03:56;;;;;;;31.20;17.17;;;-8.90;99.90;;;;;;4995508;28;20306;-67
2021/12/24 03:06:28;;;;;;;33.83;17.40;;;-8.90;99.90;;;;;;4995101;28;20207;-68
2021/12/24 03:08:56;;;;;;;32.40;16.87;;;-8.90;99.90;;;;;;4995484;28;20649;-69
2021/12/24 03:11:24;;;;;;;31.60;16.87;;;-9.00;99.90;;;;;;4994611;28;20561;-69
2021/12/24 03:13:52;;;;;;;34.30;18.67;;;-9.00;99.90;;;;;;4995326;28;20290;-69
2021/12/24 03:16:19;;;;;;;36.17;19.27;;;-9.00;99.90;;;;;;4995258;28;20203;-69
2021/12/24 03:18:46;;;;;;;35.87;19.30;;;-9.00;99.90;;;;;;4994750;28;20679;-68
2021/12/24 03:21:17;;;;;;;32.53;17.67;;;-9.00;99.90;;;;;;4994887;28;20649;-68
2021/12/24 03:24:33;;;;;;;33.60;17.67;;;-9.00;99.90;;;;;;4995240;28;20192;-67
2021/12/24 03:26:35;;;;;;;36.57;17.80;;;-9.00;99.90;;;;;;4994621;28;20210;-67
2021/12/24 03:29:02;;;;;;;34.53;17.40;;;-9.00;99.90;;;;;;4995161;28;20222;-66
2021/12/24 03:31:28;;;;;;;33.47;17.10;;;-9.10;99.90;;;;;;4995124;28;20660;-68
2021/12/24 03:33:55;;;;;;;34.83;16.23;;;-9.10;99.90;;;;;;4995194;28;20207;-68
2021/12/24 03:36:24;;;;;;;33.13;16.27;;;-9.20;99.90;;;;;;4993895;28;20217;-67
2021/12/24 03:38:52;;;;;;;30.83;15.77;;;-9.20;99.90;;;;;;4994953;28;20199;-68
2021/12/24 03:41:19;;;;;;;31.93;16.07;;;-9.20;99.90;;;;;;4994128;28;20231;-67
2021/12/24 03:43:46;;;;;;;31.23;15.13;;;-9.20;99.90;;;;;;4994377;28;20208;-67
2021/12/24 03:46:15;;;;;;;32.77;16.73;;;-9.20;99.90;;;;;;4994252;28;20199;-68
2021/12/24 03:48:49;;;;;;;29.23;15.37;;;-9.10;99.90;;;;;;4994189;28;20771;-68
2021/12/24 03:56:45;;;;;;;30.60;16.80;;;-9.10;99.90;;;;;;4994143;28;20718;-69
2021/12/24 03:59:13;;;;;;;32.93;17.10;;;-9.10;99.90;;;;;;4993313;28;20239;-67
2021/12/24 04:01:40;;;;;;;36.10;17.13;;;-9.10;99.90;;;;;;4994105;28;20226;-68
2021/12/24 04:04:07;;;;;;;29.97;16.57;;;-9.10;99.90;;;;;;4994128;28;20207;-67
2021/12/24 04:06:34;;;;;;;29.53;16.27;;;-9.10;99.90;;;;;;4994088;28;20216;-67
2021/12/24 04:09:03;;;;;;;42.53;20.30;;;-9.10;99.90;;;;;;4993965;28;20203;-68
2021/12/24 04:11:30;;;;;;;43.30;19.67;;;-9.10;99.90;;;;;;4994076;28;20571;-69
2021/12/24 04:13:57;;;;;;;45.97;19.37;;;-9.10;99.90;;;;;;4993555;28;20200;-68
2021/12/24 04:16:24;;;;;;;45.13;21.53;;;-9.10;99.90;;;;;;4994183;28;20207;-68
2021/12/24 04:18:59;;;;;;;52.43;22.63;;;-9.10;99.90;;;;;;4993703;28;20207;-68
2021/12/24 04:27:07;;;;;;;40.10;19.03;;;-9.10;99.90;;;;;;4986477;28;20589;-68
2021/12/24 04:29:34;;;;;;;37.57;19.37;;;-9.10;99.90;;;;;;4993446;28;20569;-68
2021/12/24 04:32:12;;;;;;;37.87;18.67;;;-9.10;99.90;;;;;;4993447;28;20199;-68
2021/12/24 04:34:43;;;;;;;41.07;20.13;;;-9.10;99.90;;;;;;4993415;28;20714;-68
2021/12/24 04:37:52;;;;;;;32.77;17.77;;;-9.10;99.90;;;;;;4993803;28;20203;-67
2021/12/24 04:51:15;;;;;;;36.07;18.07;;;-9.10;99.90;;;;;;4993050;28;20203;-67
2021/12/24 05:02:10;;;;;;;35.90;18.27;;;-9.10;99.90;;;;;;4987160;28;20629;-70
2021/12/24 05:04:47;;;;;;;33.33;18.77;;;-9.10;99.90;;;;;;4992505;28;20195;-68
2021/12/24 05:07:30;;;;;;;35.13;17.67;;;-9.10;99.90;;;;;;4993241;28;20202;-70
2021/12/24 05:09:57;;;;;;;36.00;18.13;;;-9.10;99.90;;;;;;4993234;28;20219;-68
2021/12/24 05:12:25;;;;;;;36.17;18.50;;;-9.00;99.90;;;;;;4992949;28;20239;-68
2021/12/24 05:14:52;;;;;;;32.77;18.17;;;-9.00;99.90;;;;;;4993373;28;20207;-69
2021/12/24 05:17:26;;;;;;;34.13;18.10;;;-9.00;99.90;;;;;;4993487;28;20199;-67
2021/12/24 05:22:37;;;;;;;30.10;16.63;;;-8.90;99.90;;;;;;4993118;28;20266;-67
2021/12/24 05:25:04;;;;;;;33.40;17.10;;;-8.80;99.90;;;;;;4993049;28;20213;-68
2021/12/24 05:27:35;;;;;;;31.47;17.00;;;-8.80;99.90;;;;;;4993065;28;20207;-68
2021/12/24 05:30:03;;;;;;;33.67;16.73;;;-8.80;99.90;;;;;;4992710;28;20212;-68
2021/12/24 05:32:30;;;;;;;32.73;17.33;;;-8.70;99.90;;;;;;4993339;28;20215;-68
2021/12/24 05:34:57;;;;;;;30.67;16.93;;;-8.70;99.90;;;;;;4992973;28;20567;-69
2021/12/24 05:37:23;;;;;;;30.00;16.80;;;-8.60;99.90;;;;;;4993129;28;20222;-70
2021/12/24 05:39:50;;;;;;;31.07;16.43;;;-8.60;99.90;;;;;;4992917;28;20222;-69
2021/12/24 05:42:17;;;;;;;33.07;16.83;;;-8.50;99.90;;;;;;4992759;28;20224;-68
2021/12/24 05:44:45;;;;;;;30.33;15.77;;;-8.50;99.90;;;;;;4992922;28;20690;-69
2021/12/24 05:47:12;;;;;;;28.93;15.87;;;-8.40;99.90;;;;;;4992897;28;20207;-68
2021/12/24 05:49:39;;;;;;;29.10;16.27;;;-8.30;99.90;;;;;;4992583;28;20211;-68
2021/12/24 05:52:06;;;;;;;30.33;15.90;;;-8.30;99.90;;;;;;4992494;28;20215;-69
2021/12/24 05:54:33;;;;;;;31.17;16.37;;;-8.30;99.90;;;;;;4992749;28;20608;-68
2021/12/24 05:56:59;;;;;;;35.00;17.73;;;-8.20;99.90;;;;;;4992610;28;20207;-69
2021/12/24 05:59:26;;;;;;;30.97;17.43;;;-8.20;99.90;;;;;;4992343;28;20235;-69
2021/12/24 06:01:54;;;;;;;32.53;17.87;;;-8.20;99.90;;;;;;4992406;28;20231;-68
2021/12/24 06:04:21;;;;;;;34.27;17.60;;;-8.20;99.90;;;;;;4992550;28;20575;-68
2021/12/24 06:06:48;;;;;;;31.33;15.87;;;-8.20;99.90;;;;;;4992330;28;20628;-68
2021/12/24 06:09:15;;;;;;;37.87;18.07;;;-8.10;99.90;;;;;;4992592;28;20572;-68
2021/12/24 06:11:41;;;;;;;35.10;17.07;;;-8.00;99.90;;;;;;4992355;28;20206;-68
2021/12/24 06:14:11;;;;;;;35.67;17.27;;;-7.90;99.90;;;;;;4992549;28;20203;-68
2021/12/24 06:16:47;;;;;;;38.07;17.30;;;-7.90;99.90;;;;;;4992641;28;20262;-69
2021/12/24 06:19:15;;;;;;;33.00;16.47;;;-7.90;99.90;;;;;;4991657;28;20195;-68
2021/12/24 06:21:42;;;;;;;32.27;16.27;;;-7.80;99.90;;;;;;4992128;28;20215;-70
2021/12/24 06:24:10;;;;;;;34.57;16.30;;;-7.80;99.90;;;;;;4992048;28;20214;-69
2021/12/24 06:26:36;;;;;;;29.00;15.63;;;-7.70;99.90;;;;;;4992455;28;20221;-69
2021/12/24 06:29:04;;;;;;;29.60;15.90;;;-7.70;99.90;;;;;;4992491;28;20213;-68
2021/12/24 06:31:30;;;;;;;28.53;15.63;;;-7.60;99.90;;;;;;4992544;28;20226;-68
2021/12/24 06:33:57;;;;;;;30.27;15.17;;;-7.60;99.90;;;;;;4992319;28;20209;-68
2021/12/24 06:36:26;;;;;;;29.87;15.27;;;-7.60;99.90;;;;;;4992322;28;20221;-68
2021/12/24 06:38:52;;;;;;;28.40;14.80;;;-7.50;99.90;;;;;;4992354;28;20203;-70
2021/12/24 06:41:19;;;;;;;29.03;16.00;;;-7.50;99.90;;;;;;4992166;28;20361;-67
2021/12/24 06:43:46;;;;;;;29.53;15.23;;;-7.50;99.90;;;;;;4992173;28;20241;-68
2021/12/24 06:46:13;;;;;;;27.80;15.10;;;-7.40;99.90;;;;;;4992365;28;20211;-69
2021/12/24 06:48:41;;;;;;;29.47;15.53;;;-7.40;99.90;;;;;;4992285;28;20211;-69
2021/12/24 06:51:09;;;;;;;28.93;15.93;;;-7.30;99.90;;;;;;4992307;28;20207;-68
2021/12/24 06:53:37;;;;;;;29.53;15.40;;;-7.30;99.90;;;;;;4992270;28;20199;-68
2021/12/24 06:56:04;;;;;;;28.87;15.00;;;-7.20;99.90;;;;;;4992116;28;20217;-68
2021/12/24 06:58:31;;;;;;;30.67;15.17;;;-7.20;99.90;;;;;;4992002;28;20242;-68
2021/12/24 07:00:58;;;;;;;32.57;15.90;;;-7.20;99.90;;;;;;4992246;28;20318;-70
2021/12/24 07:03:25;;;;;;;30.67;14.83;;;-7.20;99.90;;;;;;4992331;28;20310;-68
2021/12/24 07:05:52;;;;;;;29.33;15.40;;;-7.10;99.90;;;;;;4984552;28;20541;-69
2021/12/24 07:08:18;;;;;;;32.40;15.80;;;-7.20;99.90;;;;;;4979059;28;20219;-70
2021/12/24 07:10:47;;;;;;;31.90;16.40;;;-7.10;99.90;;;;;;4992049;28;20203;-70
2021/12/24 07:13:13;;;;;;;37.27;18.20;;;-7.10;99.90;;;;;;4991587;28;20206;-68
2021/12/24 07:15:40;;;;;;;31.13;16.37;;;-7.00;99.90;;;;;;4992228;28;20211;-69
2021/12/24 07:18:07;;;;;;;35.27;17.23;;;-7.00;99.90;;;;;;4992161;28;20209;-70
2021/12/24 07:20:34;;;;;;;29.70;15.37;;;-6.90;99.90;;;;;;4992072;28;20699;-70
2021/12/24 07:23:01;;;;;;;31.23;15.73;;;-6.90;99.90;;;;;;4991832;28;20225;-69
2021/12/24 07:25:27;;;;;;;34.40;15.63;;;-6.80;99.90;;;;;;4991717;28;20231;-68
2021/12/24 07:27:56;;;;;;;28.97;15.20;;;-6.80;99.90;;;;;;4991781;28;20208;-70
2021/12/24 07:30:23;;;;;;;26.97;15.07;;;-6.80;99.90;;;;;;4993618;28;20203;-69
2021/12/24 07:32:50;;;;;;;32.30;15.33;;;-6.80;99.90;;;;;;4995355;28;20212;-70
2021/12/24 07:35:18;;;;;;;31.20;15.50;;;-6.70;99.90;;;;;;4995570;28;20207;-68
2021/12/24 07:37:45;;;;;;;34.10;17.00;;;-6.70;99.90;;;;;;4995136;28;20211;-67
2021/12/24 07:40:15;;;;;;;34.87;16.63;;;-6.70;99.90;;;;;;4994852;28;20211;-69
2021/12/24 07:42:42;;;;;;;28.93;16.10;;;-6.60;99.90;;;;;;4995041;28;20622;-69
2021/12/24 07:45:11;;;;;;;42.57;18.50;;;-6.60;99.90;;;;;;4995432;28;20225;-69
2021/12/24 07:47:41;;;;;;;40.97;20.20;;;-6.50;99.90;;;;;;4995215;28;20208;-69
2021/12/24 07:51:56;;;;;;;42.23;20.27;;;-6.50;99.90;;;;;;4995095;28;20200;-69
2021/12/24 07:53:05;;;;;;;34.93;17.77;;;-6.50;99.90;;;;;;4994837;28;20192;-69
2021/12/24 07:55:32;;;;;;;40.87;19.43;;;-6.50;99.90;;;;;;4994432;28;20218;-70
2021/12/24 07:57:59;;;;;;;41.17;18.87;;;-6.40;99.90;;;;;;4994574;28;20318;-69
2021/12/24 08:00:27;;;;;;;36.13;17.53;;;-6.40;99.90;;;;;;4994482;28;20223;-69
2021/12/24 08:02:54;;;;;;;36.60;17.63;;;-6.30;99.90;;;;;;4994605;28;20234;-69
2021/12/24 08:05:24;;;;;;;33.63;17.23;;;-6.30;99.90;;;;;;4992794;28;20208;-70
2021/12/24 08:07:51;;;;;;;34.27;17.10;;;-6.30;99.90;;;;;;4994429;28;20219;-69
2021/12/24 08:10:18;;;;;;;43.53;20.33;;;-6.20;99.90;;;;;;4990271;28;20683;-67
2021/12/24 08:12:45;;;;;;;33.33;17.63;;;-6.20;99.90;;;;;;4993622;28;20203;-68
2021/12/24 08:15:12;;;;;;;35.93;17.90;;;-6.20;99.90;;;;;;4994210;28;20209;-72
2021/12/24 08:17:40;;;;;;;37.07;17.90;;;-6.20;99.90;;;;;;4994115;28;20207;-68
2021/12/24 08:20:08;;;;;;;38.33;19.03;;;-6.10;99.90;;;;;;4993553;28;20212;-67
2021/12/24 08:22:36;;;;;;;34.17;17.60;;;-6.10;99.90;;;;;;4993888;28;20676;-69
2021/12/24 08:25:05;;;;;;;36.83;16.83;;;-6.00;99.90;;;;;;4993978;28;20206;-70
2021/12/24 08:27:32;;;;;;;37.00;17.67;;;-6.00;99.90;;;;;;4993524;28;20195;-69
2021/12/24 08:29:59;;;;;;;37.13;18.37;;;-5.90;99.90;;;;;;4993866;28;20200;-69
2021/12/24 08:32:26;;;;;;;33.03;17.93;;;-5.90;99.90;;;;;;4993426;28;20210;-69
2021/12/24 08:34:55;;;;;;;31.90;16.07;;;-5.80;99.90;;;;;;4994326;28;20196;-69
2021/12/24 08:37:23;;;;;;;34.20;17.43;;;-5.80;99.90;;;;;;4994165;28;20199;-69
2021/12/24 08:39:50;;;;;;;35.23;17.93;;;-5.70;99.90;;;;;;4993980;28;20200;-69
2021/12/24 08:42:17;;;;;;;34.87;17.63;;;-5.60;99.90;;;;;;4993701;28;20195;-69
2021/12/24 08:44:44;;;;;;;36.70;17.63;;;-5.60;99.90;;;;;;4993178;28;20717;-69
2021/12/24 08:47:11;;;;;;;37.90;18.00;;;-5.60;99.90;;;;;;4993823;28;20559;-68
2021/12/24 08:49:38;;;;;;;39.00;18.00;;;-5.50;99.90;;;;;;4992907;28;20298;-69
2021/12/24 08:52:07;;;;;;;36.33;17.97;;;-5.40;99.90;;;;;;4993312;28;20235;-69
2021/12/24 08:54:34;;;;;;;33.60;16.63;;;-5.30;99.90;;;;;;4993529;28;20199;-70
2021/12/24 08:57:00;;;;;;;35.57;16.30;;;-5.20;99.90;;;;;;4993415;28;20679;-69
2021/12/24 08:59:27;;;;;;;30.27;15.07;;;-5.20;99.90;;;;;;4993134;28;20231;-70
2021/12/24 09:01:58;;;;;;;29.00;14.23;;;-5.10;99.90;;;;;;4993445;28;20660;-70
2021/12/24 09:04:25;;;;;;;26.83;13.90;;;-5.00;99.90;;;;;;4993161;28;20207;-68
2021/12/24 09:06:52;;;;;;;26.73;14.00;;;-5.00;99.90;;;;;;4993914;28;20203;-68
2021/12/24 09:09:20;;;;;;;25.40;13.83;;;-4.90;99.90;;;;;;4993173;28;20203;-69
2021/12/24 09:11:47;;;;;;;28.47;14.67;;;-4.80;99.90;;;;;;4992955;28;20660;-68
2021/12/24 09:14:17;;;;;;;23.13;12.83;;;-4.70;99.90;;;;;;4993066;28;20257;-69
2021/12/24 09:16:44;;;;;;;26.63;14.13;;;-4.70;99.90;;;;;;4992695;28;20266;-70
2021/12/24 09:19:14;;;;;;;31.10;14.23;;;-4.60;99.90;;;;;;4992776;28;20207;-70
2021/12/24 09:21:41;;;;;;;27.53;13.40;;;-4.50;99.90;;;;;;4993237;28;20246;-70
2021/12/24 09:24:09;;;;;;;25.47;12.73;;;-4.50;99.90;;;;;;4992969;28;20372;-68
2021/12/24 09:26:38;;;;;;;24.63;12.67;;;-4.50;99.90;;;;;;4992961;28;20211;-70
2021/12/24 09:29:07;;;;;;;28.17;13.63;;;-4.40;99.90;;;;;;4992708;28;20207;-69
2021/12/24 09:31:35;;;;;;;26.03;12.90;;;-4.40;99.90;;;;;;4992443;28;20667;-69
2021/12/24 09:34:02;;;;;;;25.03;12.20;;;-4.40;99.90;;;;;;4993417;28;20644;-70
2021/12/24 09:36:29;;;;;;;24.77;12.47;;;-4.30;99.90;;;;;;4993253;28;20214;-70
2021/12/24 09:39:01;;;;;;;22.07;11.47;;;-4.30;99.90;;;;;;4993042;28;20652;-68
2021/12/24 09:41:28;;;;;;;21.90;11.57;;;-4.30;99.90;;;;;;4992810;28;20617;-69
2021/12/24 09:43:58;;;;;;;20.33;10.87;;;-4.30;99.90;;;;;;4992921;28;20235;-70
2021/12/24 09:46:26;;;;;;;22.17;11.40;;;-4.20;99.90;;;;;;4992473;28;20207;-68
2021/12/24 09:48:52;;;;;;;25.93;12.30;;;-4.20;99.90;;;;;;4992963;28;20218;-69
2021/12/24 09:51:20;;;;;;;19.37;11.50;;;-4.10;99.90;;;;;;4992597;28;20211;-69
2021/12/24 09:53:47;;;;;;;22.67;11.03;;;-4.10;99.90;;;;;;4991832;28;20207;-68
2021/12/24 09:56:13;;;;;;;23.47;12.53;;;-4.10;99.90;;;;;;4992200;28;20274;-69
2021/12/24 09:58:40;;;;;;;19.53;10.83;;;-4.00;99.90;;;;;;4991952;28;20237;-70
2021/12/24 10:01:08;;;;;;;19.87;11.47;;;-4.00;99.90;;;;;;4992335;28;20564;-69
2021/12/24 10:03:37;;;;;;;22.90;12.03;;;-4.00;99.90;;;;;;4992564;28;20223;-70
2021/12/24 10:06:06;;;;;;;19.90;10.57;;;-3.90;99.90;;;;;;4992413;28;20287;-69
2021/12/24 10:08:33;;;;;;;21.37;12.13;;;-3.90;99.90;;;;;;4992275;28;20231;-69
2021/12/24 10:11:04;;;;;;;20.37;11.53;;;-3.90;99.90;;;;;;4992486;28;20254;-70
2021/12/24 10:13:38;;;;;;;21.33;11.60;;;-3.90;99.90;;;;;;4992223;28;20215;-70
2021/12/24 10:16:08;;;;;;;20.43;11.70;;;-3.90;99.90;;;;;;4992422;28;20227;-70
2021/12/24 10:18:42;;;;;;;22.00;11.90;;;-3.80;99.90;;;;;;4992045;28;20234;-70
2021/12/24 10:21:15;;;;;;;21.10;10.67;;;-3.80;99.90;;;;;;4991889;28;20196;-70
2021/12/24 10:23:48;;;;;;;16.17;9.80;;;-3.80;99.90;;;;;;4991513;28;20239;-71
2021/12/24 10:26:18;;;;;;;18.87;10.50;;;-3.90;99.90;;;;;;4990234;28;20215;-70
2021/12/24 10:29:04;;;;;;;18.87;10.83;;;-3.90;99.90;;;;;;4992072;28;20309;-71
2021/12/24 10:31:35;;;;;;;22.60;11.43;;;-3.90;99.90;;;;;;4990831;28;20218;-69
2021/12/24 10:34:14;;;;;;;22.27;11.70;;;-3.90;99.90;;;;;;4972950;28;20280;-70
2021/12/24 10:37:06;;;;;;;21.93;12.10;;;-3.90;99.90;;;;;;4985696;28;20202;-71
2021/12/24 10:39:38;;;;;;;21.57;11.97;;;-3.90;99.90;;;;;;4990022;28;20218;-68
2021/12/24 10:42:09;;;;;;;23.90;12.23;;;-3.80;99.90;;;;;;4991629;28;20195;-69
2021/12/24 10:44:38;;;;;;;22.97;11.77;;;-3.80;99.90;;;;;;4992250;28;20208;-69
2021/12/24 10:47:10;;;;;;;21.17;11.63;;;-3.80;99.90;;;;;;4991198;28;20261;-70
2021/12/24 10:49:57;;;;;;;25.23;12.77;;;-3.70;99.90;;;;;;4992125;28;20641;-69
2021/12/24 10:55:13;;;;;;;22.57;12.00;;;-3.60;99.90;;;;;;4972352;28;20238;-70
2021/12/24 10:57:42;;;;;;;22.43;12.63;;;-3.60;99.90;;;;;;4972515;28;20221;-71
2021/12/24 11:00:17;;;;;;;23.73;13.00;;;-3.60;99.90;;;;;;4972361;28;20196;-71
2021/12/24 11:02:50;;;;;;;21.77;12.30;;;-3.60;99.90;;;;;;4990377;28;20194;-68
2021/12/24 11:05:34;;;;;;;22.23;11.90;;;-3.50;99.90;;;;;;4994738;28;20215;-71
2021/12/24 11:08:03;;;;;;;23.10;12.37;;;-3.50;99.90;;;;;;4994484;28;20218;-70
2021/12/24 11:10:31;;;;;;;24.07;12.40;;;-3.40;99.90;;;;;;4995214;28;20200;-70
2021/12/24 11:13:07;;;;;;;23.43;11.87;;;-3.40;99.90;;;;;;4995407;28;20233;-70
2021/12/24 11:15:37;;;;;;;27.53;13.00;;;-3.40;99.90;;;;;;4995397;28;20231;-71
2021/12/24 11:18:08;;;;;;;25.00;12.90;;;-3.40;99.90;;;;;;4994878;28;20206;-69
2021/12/24 11:20:35;;;;;;;23.87;12.73;;;-3.40;99.90;;;;;;4995519;28;20251;-69
2021/12/24 11:23:05;;;;;;;20.47;12.57;;;-3.40;99.90;;;;;;4994859;28;20672;-70
2021/12/24 11:25:34;;;;;;;23.83;13.10;;;-3.40;99.90;;;;;;4995423;28;20211;-68
2021/12/24 11:28:02;;;;;;;26.60;13.23;;;-3.40;99.90;;;;;;4994998;28;20214;-70
2021/12/24 11:30:31;;;;;;;22.70;12.53;;;-3.30;99.90;;;;;;4993901;28;20208;-70
2021/12/24 11:32:59;;;;;;;25.90;13.83;;;-3.30;99.90;;;;;;4985264;28;20231;-69
2021/12/24 11:35:28;;;;;;;24.40;12.20;;;-3.30;99.90;;;;;;4994347;28;20203;-70
2021/12/24 11:37:55;;;;;;;22.23;12.37;;;-3.40;99.90;;;;;;4995412;28;20225;-69
2021/12/24 11:40:24;;;;;;;23.87;12.87;;;-3.50;99.90;;;;;;4995191;28;20653;-71
2021/12/24 11:42:58;;;;;;;22.70;12.73;;;-3.50;99.90;;;;;;4994520;28;20281;-71
2021/12/24 11:45:26;;;;;;;22.70;12.30;;;-3.40;99.90;;;;;;4994512;28;20239;-72
2021/12/24 11:47:54;;;;;;;21.50;13.03;;;-3.30;99.90;;;;;;4995309;28;20207;-69
2021/12/24 11:50:22;;;;;;;23.83;13.20;;;-3.40;99.90;;;;;;4995362;28;20206;-72
2021/12/24 11:52:54;;;;;;;24.17;13.50;;;-3.40;99.90;;;;;;4995303;28;20208;-72
2021/12/24 11:55:23;;;;;;;23.90;13.67;;;-3.30;99.90;;;;;;4995301;28;20881;-69
2021/12/24 11:57:52;;;;;;;26.30;13.53;;;-3.30;99.90;;;;;;4994763;28;20599;-67
2021/12/24 12:00:24;;;;;;;27.50;14.03;;;-3.30;99.90;;;;;;4995437;28;20207;-69
2021/12/24 12:02:51;;;;;;;24.83;13.83;;;-3.30;99.90;;;;;;4994171;28;20196;-69
2021/12/24 12:05:22;;;;;;;27.03;13.73;;;-3.30;99.90;;;;;;4990085;28;20238;-68
2021/12/24 12:07:52;;;;;;;26.20;14.70;;;-3.30;99.90;;;;;;4995051;28;20434;-68
2021/12/24 12:10:50;;;;;;;25.57;14.50;;;-3.30;99.90;;;;;;4994528;28;20557;-68
2021/12/24 12:13:52;;;;;;;26.70;14.77;;;-3.30;99.90;;;;;;4994154;28;20211;-68
2021/12/24 12:16:20;;;;;;;27.23;14.43;;;-3.20;99.90;;;;;;4933739;29;20229;-69
2021/12/24 12:19:00;;;;;;;21.47;12.83;;;-3.20;99.90;;;;;;4934609;29;20231;-69
2021/12/24 12:21:36;;;;;;;26.50;14.53;;;-3.20;99.90;;;;;;4934493;29;20276;-69
2021/12/24 12:27:00;;;;;;;28.00;14.30;;;-3.20;99.90;;;;;;4934006;29;20667;-68
2021/12/24 12:29:33;;;;;;;24.17;13.70;;;-3.10;99.90;;;;;;4934049;29;20214;-69
2021/12/24 12:32:28;;;;;;;23.57;14.03;;;-3.10;99.90;;;;;;4934223;29;20289;-69
2021/12/24 12:35:01;;;;;;;25.40;13.67;;;-3.10;99.90;;;;;;4934272;29;20217;-68
2021/12/24 12:37:30;;;;;;;27.47;14.80;;;-3.10;99.90;;;;;;4934265;29;20700;-69
2021/12/24 12:40:05;;;;;;;25.17;14.40;;;-3.10;99.90;;;;;;4933985;29;20228;-68
2021/12/24 12:43:07;;;;;;;27.33;15.13;;;-3.20;99.90;;;;;;4933718;29;20197;-69
2021/12/24 12:46:03;;;;;;;26.07;14.10;;;-3.20;99.90;;;;;;4927346;29;20438;-70
2021/12/24 12:48:57;;;;;;;26.73;14.80;;;-3.30;99.90;;;;;;4994399;28;20199;-69
2021/12/24 12:51:49;;;;;;;26.80;14.50;;;-3.30;99.90;;;;;;4959186;28;20741;-68
2021/12/24 12:54:31;;;;;;;26.33;14.47;;;-3.30;99.90;;;;;;4993834;28;20200;-70
2021/12/24 12:57:30;;;;;;;26.60;14.80;;;-3.30;99.90;;;;;;4993959;28;20234;-69
2021/12/24 13:00:29;;;;;;;33.10;15.50;;;-3.20;99.90;;;;;;4933525;29;20197;-70
2021/12/24 13:03:10;;;;;;;30.93;16.83;;;-3.20;99.90;;;;;;4933370;29;20216;-69
2021/12/24 13:06:01;;;;;;;27.67;15.70;;;-3.20;99.90;;;;;;4933382;29;20606;-67
2021/12/24 13:08:30;;;;;;;30.33;15.97;;;-3.20;99.90;;;;;;4933417;29;20256;-70
2021/12/24 13:10:59;;;;;;;33.87;17.47;;;-3.20;99.90;;;;;;4933114;29;20306;-69
2021/12/24 13:13:28;;;;;;;32.63;16.60;;;-3.20;99.90;;;;;;4933332;29;20686;-69
2021/12/24 13:15:55;;;;;;;35.57;17.37;;;-3.20;99.90;;;;;;4932998;29;20205;-69
2021/12/24 13:18:27;;;;;;;35.13;17.13;;;-3.20;99.90;;;;;;4933164;29;20216;-70
2021/12/24 13:23:42;;;;;;;30.97;15.60;;;-3.20;99.90;;;;;;4933447;29;20193;-68
2021/12/24 13:26:16;;;;;;;27.57;15.60;;;-3.30;99.90;;;;;;4933272;29;20309;-68
2021/12/24 13:29:02;;;;;;;28.53;15.57;;;-3.30;99.90;;;;;;4931819;29;20674;-70
2021/12/24 13:31:30;;;;;;;27.13;14.67;;;-3.30;99.90;;;;;;4933028;29;20206;-67
2021/12/24 13:33:57;;;;;;;24.27;14.43;;;-3.30;99.90;;;;;;4959214;28;20219;-68
2021/12/24 13:36:26;;;;;;;29.63;16.00;;;-3.30;99.90;;;;;;4993395;28;20203;-69
2021/12/24 13:38:53;;;;;;;31.43;16.30;;;-3.40;99.90;;;;;;4993087;28;20686;-69
2021/12/24 13:41:23;;;;;;;33.25;18.42;;;-3.30;99.90;;;;;;4992428;28;20429;-69
2021/12/24 13:43:50;;;;;;;30.60;16.67;;;-3.30;99.90;;;;;;4992858;28;20187;-67
2021/12/24 13:46:18;;;;;;;26.37;15.47;;;-3.20;99.90;;;;;;4993546;28;20243;-69
2021/12/24 13:49:14;;;;;;;26.90;14.90;;;-3.20;99.90;;;;;;4992980;28;20207;-69
2021/12/24 13:54:35;;;;;;;30.80;15.70;;;-3.30;99.90;;;;;;4992794;28;20182;-69
2021/12/24 13:57:04;;;;;;;34.27;16.67;;;-3.20;99.90;;;;;;4992886;28;20289;-68
2021/12/24 13:59:32;;;;;;;31.13;17.37;;;-3.20;99.90;;;;;;4992706;28;20715;-68
2021/12/24 14:02:01;;;;;;;28.43;16.03;;;-3.20;99.90;;;;;;4993193;28;20203;-68
2021/12/24 14:04:30;;;;;;;28.60;16.03;;;-3.20;99.90;;;;;;4993005;28;20219;-69
2021/12/24 14:06:58;;;;;;;26.00;15.83;;;-3.20;99.90;;;;;;4992822;28;20664;-67